Time;durP1;ratioP1;P1;durP2;ratioP2;P2;SDS_P1;SDS_P2;PMS_P1;PMS_P2;Temp;Humidity;BMP_temperature;BMP_pressure;BME280_temperature;BME280_humidity;BME280_pressure;Samples;Min_cycle;Max_cycle;Signal;HPM_P1;HPM_P2
2024/03/21 00:00:28;;;;;;;5.70;3.33;;;17.60;58.70;;;;;;6267750;28;20033;-76
2024/03/21 00:03:33;;;;;;;9.27;3.17;;;17.50;58.80;;;;;;6284605;28;20035;-76
2024/03/21 00:06:35;;;;;;;7.47;3.33;;;17.50;58.90;;;;;;6282776;28;20025;-77
2024/03/21 00:09:38;;;;;;;6.97;3.70;;;17.40;59.00;;;;;;6268315;28;20115;-76
2024/03/21 00:12:40;;;;;;;4.97;3.03;;;17.40;59.00;;;;;;6285224;28;20102;-76
2024/03/21 00:15:41;;;;;;;7.03;3.45;;;17.30;59.10;;;;;;6285204;28;20150;-76
2024/03/21 00:18:43;;;;;;;8.18;3.80;;;17.30;59.10;;;;;;6262567;28;20039;-74
2024/03/21 00:21:45;;;;;;;8.82;3.97;;;17.30;59.20;;;;;;6284045;28;20115;-76
2024/03/21 00:24:47;;;;;;;8.30;4.00;;;17.30;59.20;;;;;;6284106;28;20028;-78
2024/03/21 00:27:50;;;;;;;11.98;4.20;;;17.30;59.30;;;;;;6283990;28;20193;-77
2024/03/21 00:30:54;;;;;;;8.35;3.40;;;17.30;59.30;;;;;;6284923;28;20491;-77
2024/03/21 00:33:55;;;;;;;9.27;3.60;;;17.30;59.30;;;;;;6267967;28;20067;-76
2024/03/21 00:36:56;;;;;;;9.45;3.40;;;17.30;59.90;;;;;;6255851;28;20027;-77
2024/03/21 00:39:57;;;;;;;6.13;3.15;;;17.30;59.20;;;;;;6282031;28;20695;-75
2024/03/21 00:42:58;;;;;;;4.97;3.33;;;17.20;59.10;;;;;;6267489;28;20024;-77
2024/03/21 00:45:58;;;;;;;11.45;3.75;;;17.20;59.10;;;;;;6283471;28;20030;-77
2024/03/21 00:49:01;;;;;;;8.60;4.00;;;17.20;59.10;;;;;;6283329;28;20020;-76
2024/03/21 00:52:01;;;;;;;7.20;3.47;;;17.20;59.10;;;;;;6285820;28;20048;-76
2024/03/21 00:55:02;;;;;;;9.85;4.65;;;17.20;59.20;;;;;;6283821;28;20046;-77
2024/03/21 00:58:03;;;;;;;7.07;3.83;;;17.20;59.30;;;;;;6283223;28;20032;-75
2024/03/21 01:01:05;;;;;;;7.03;3.67;;;17.20;59.30;;;;;;6279767;28;20009;-78
2024/03/21 01:04:07;;;;;;;9.27;3.38;;;17.20;59.30;;;;;;6258774;28;20513;-76
2024/03/21 01:07:08;;;;;;;8.27;3.60;;;17.20;59.30;;;;;;6278103;28;20020;-77
2024/03/21 01:10:09;;;;;;;7.28;3.47;;;17.20;59.40;;;;;;6284110;28;20163;-78
2024/03/21 01:13:10;;;;;;;14.38;3.60;;;17.20;59.50;;;;;;6285075;28;20502;-77
2024/03/21 01:16:12;;;;;;;7.63;3.50;;;17.10;59.40;;;;;;6283031;28;20036;-77
2024/03/21 01:19:13;;;;;;;8.35;4.00;;;17.10;59.60;;;;;;6284447;28;20024;-77
2024/03/21 01:22:13;;;;;;;6.10;3.55;;;17.10;59.60;;;;;;6282789;28;20028;-77
2024/03/21 01:25:15;;;;;;;10.85;4.03;;;17.00;59.70;;;;;;6281171;28;20040;-76
2024/03/21 01:28:16;;;;;;;9.55;3.92;;;17.00;59.80;;;;;;6283576;28;20028;-77
2024/03/21 01:31:20;;;;;;;7.95;4.32;;;17.00;59.90;;;;;;6270766;28;20023;-76
2024/03/21 01:34:22;;;;;;;15.20;3.88;;;17.00;60.00;;;;;;6282160;28;20473;-76
2024/03/21 01:37:23;;;;;;;8.60;3.72;;;17.00;60.10;;;;;;6265491;28;20070;-76
2024/03/21 01:40:24;;;;;;;7.63;4.13;;;17.00;60.20;;;;;;6281794;28;20084;-76
2024/03/21 01:43:28;;;;;;;7.50;4.00;;;17.00;60.20;;;;;;6265586;28;20108;-76
2024/03/21 01:46:29;;;;;;;7.45;3.75;;;17.00;60.20;;;;;;6284031;28;20008;-76
2024/03/21 01:49:31;;;;;;;10.52;4.45;;;17.00;60.10;;;;;;6241071;28;20409;-76
2024/03/21 01:52:34;;;;;;;7.43;3.90;;;17.00;60.00;;;;;;6254133;28;20285;-76
2024/03/21 01:55:36;;;;;;;10.15;4.18;;;17.10;60.00;;;;;;6274161;28;20029;-76
2024/03/21 01:58:38;;;;;;;8.57;3.70;;;17.10;59.90;;;;;;6273330;28;20032;-76
2024/03/21 02:01:40;;;;;;;12.05;3.92;;;17.10;59.80;;;;;;6281941;28;20036;-76
2024/03/21 02:04:43;;;;;;;10.55;4.03;;;17.20;59.80;;;;;;6243357;28;21311;-76
2024/03/21 02:07:44;;;;;;;9.90;3.75;;;17.20;59.70;;;;;;6256882;28;20025;-76
2024/03/21 02:10:46;;;;;;;9.82;4.32;;;17.20;59.60;;;;;;6261267;28;20043;-77
2024/03/21 02:13:49;;;;;;;11.07;3.88;;;17.20;59.60;;;;;;6281456;28;20043;-77
2024/03/21 02:16:49;;;;;;;8.73;3.60;;;17.20;59.60;;;;;;6264369;28;20341;-77
2024/03/21 02:19:50;;;;;;;9.70;3.60;;;17.20;59.50;;;;;;6264201;28;20139;-76
2024/03/21 02:22:54;;;;;;;10.80;4.03;;;17.20;59.60;;;;;;6264667;28;20025;-78
2024/03/21 02:25:57;;;;;;;7.28;3.42;;;17.30;59.60;;;;;;6281216;28;20016;-76
2024/03/21 02:29:00;;;;;;;6.53;3.58;;;17.30;59.50;;;;;;6281148;28;20021;-76
2024/03/21 02:32:01;;;;;;;7.38;3.95;;;17.30;59.50;;;;;;6280863;28;20028;-77
2024/03/21 02:35:03;;;;;;;8.45;3.78;;;17.30;59.40;;;;;;6264109;28;20037;-76
2024/03/21 02:38:05;;;;;;;7.72;3.47;;;17.20;59.30;;;;;;6271021;28;20040;-76
2024/03/21 02:41:11;;;;;;;9.65;3.95;;;17.30;59.40;;;;;;6277047;28;20467;-77
2024/03/21 02:44:12;;;;;;;10.20;4.10;;;17.20;59.40;;;;;;6281108;28;20082;-76
2024/03/21 02:47:15;;;;;;;7.93;3.38;;;17.20;59.40;;;;;;6280545;28;20073;-77
2024/03/21 02:50:16;;;;;;;7.45;4.10;;;17.30;59.40;;;;;;6263460;28;20143;-75
2024/03/21 02:53:17;;;;;;;9.02;4.00;;;17.10;59.30;;;;;;6275763;28;20024;-76
2024/03/21 02:56:18;;;;;;;8.00;3.83;;;17.10;59.30;;;;;;6263449;28;20108;-77
2024/03/21 02:59:19;;;;;;;8.48;3.42;;;17.10;59.30;;;;;;6280258;28;20536;-76
2024/03/21 03:02:20;;;;;;;8.68;3.63;;;17.10;59.20;;;;;;6271707;28;20473;-77
2024/03/21 03:05:20;;;;;;;8.85;4.45;;;17.00;59.20;;;;;;6246418;28;20100;-76
2024/03/21 03:08:21;;;;;;;12.65;4.25;;;17.00;59.10;;;;;;6279942;28;20029;-76
2024/03/21 03:11:24;;;;;;;8.30;4.13;;;17.00;59.00;;;;;;6279324;28;20205;-77
2024/03/21 03:14:26;;;;;;;9.85;4.07;;;17.00;59.10;;;;;;6280118;28;20080;-77
2024/03/21 03:17:27;;;;;;;10.98;3.90;;;17.00;59.20;;;;;;6279434;28;20039;-77
2024/03/21 03:20:28;;;;;;;9.50;4.35;;;16.90;59.20;;;;;;6245450;28;20024;-75
2024/03/21 03:27:51;;;;;;;8.52;4.05;;;16.90;59.20;;;;;;6286718;28;20028;-76
2024/03/21 03:30:52;;;;;;;6.90;3.65;;;16.80;59.10;;;;;;6283358;28;20070;-75
2024/03/21 03:38:12;;;;;;;6.03;4.07;;;16.80;59.10;;;;;;6286407;28;20597;-76
2024/03/21 03:41:13;;;;;;;12.45;3.72;;;16.70;59.00;;;;;;6278498;28;20029;-76
2024/03/21 03:44:15;;;;;;;10.00;4.68;;;16.70;59.00;;;;;;6284401;28;20392;-77
2024/03/21 03:47:17;;;;;;;6.10;3.78;;;16.70;59.00;;;;;;6267922;28;20021;-76
2024/03/21 03:50:19;;;;;;;10.30;4.20;;;16.70;59.00;;;;;;6272465;28;20028;-77
2024/03/21 03:53:20;;;;;;;8.60;3.55;;;16.70;58.90;;;;;;6285316;28;20044;-77
2024/03/21 03:56:21;;;;;;;12.98;3.80;;;16.70;59.00;;;;;;6286476;28;20054;-77
2024/03/21 03:59:22;;;;;;;9.27;4.32;;;16.70;59.00;;;;;;6267771;28;20163;-77
2024/03/21 04:02:27;;;;;;;5.60;3.42;;;16.70;59.10;;;;;;6283706;28;20020;-76
2024/03/21 04:05:28;;;;;;;8.25;4.07;;;16.70;59.20;;;;;;6267543;28;20048;-77
2024/03/21 04:08:29;;;;;;;10.45;4.03;;;16.70;59.20;;;;;;6286377;28;20322;-77
2024/03/21 04:11:32;;;;;;;6.65;3.70;;;16.60;59.20;;;;;;6265793;28;20181;-76
2024/03/21 04:14:33;;;;;;;9.45;3.60;;;16.60;59.30;;;;;;6285029;28;20039;-77
2024/03/21 04:17:34;;;;;;;6.68;3.67;;;16.50;59.40;;;;;;6267709;28;20448;-76
2024/03/21 04:20:35;;;;;;;5.85;3.67;;;16.40;59.60;;;;;;6268012;28;20051;-76
2024/03/21 04:23:35;;;;;;;7.90;4.20;;;16.40;59.70;;;;;;6267814;28;20083;-78
2024/03/21 04:26:38;;;;;;;5.75;3.78;;;16.40;59.90;;;;;;6284826;28;20016;-77
2024/03/21 04:29:40;;;;;;;9.02;3.83;;;16.40;60.00;;;;;;6284799;28;20495;-76
2024/03/21 04:32:40;;;;;;;14.93;4.05;;;16.40;60.20;;;;;;6284099;28;20017;-76
2024/03/21 04:35:41;;;;;;;10.10;4.80;;;16.40;59.90;;;;;;6284585;28;20574;-76
2024/03/21 04:38:42;;;;;;;17.88;4.00;;;16.40;59.90;;;;;;6284377;28;20135;-76
2024/03/21 04:41:43;;;;;;;8.23;4.47;;;16.40;60.00;;;;;;6268139;28;20021;-77
2024/03/21 04:44:45;;;;;;;10.27;4.20;;;16.40;59.90;;;;;;6277125;28;20460;-75
2024/03/21 04:47:46;;;;;;;6.05;4.03;;;16.50;59.90;;;;;;6293095;28;20021;-76
2024/03/21 04:50:47;;;;;;;8.52;3.97;;;16.50;59.90;;;;;;6284001;28;20040;-77
2024/03/21 04:53:48;;;;;;;9.45;3.72;;;16.40;59.80;;;;;;6284213;28;20033;-76
2024/03/21 04:56:49;;;;;;;9.38;3.75;;;16.40;59.80;;;;;;6284509;28;20464;-76
2024/03/21 04:59:54;;;;;;;10.27;4.50;;;16.40;59.70;;;;;;6283421;28;20048;-76
2024/03/21 05:02:56;;;;;;;9.70;4.97;;;16.40;59.80;;;;;;6266735;28;20044;-77
2024/03/21 05:05:57;;;;;;;17.63;4.55;;;16.40;59.80;;;;;;6251365;28;20029;-77
2024/03/21 05:08:58;;;;;;;6.20;3.78;;;16.40;60.00;;;;;;6264373;28;20009;-77
2024/03/21 05:11:59;;;;;;;8.75;4.15;;;16.40;60.00;;;;;;6283110;28;20024;-77
2024/03/21 05:15:00;;;;;;;8.15;4.03;;;16.40;60.00;;;;;;6265677;28;20070;-77
2024/03/21 05:18:01;;;;;;;6.53;3.83;;;16.30;60.00;;;;;;6266503;28;20402;-77
2024/03/21 05:21:03;;;;;;;6.03;3.28;;;16.30;60.10;;;;;;6283242;28;20433;-77
2024/03/21 05:24:04;;;;;;;8.40;4.35;;;16.30;60.20;;;;;;6283088;28;20031;-76
2024/03/21 05:27:06;;;;;;;8.15;3.88;;;16.20;60.30;;;;;;6266339;28;20177;-75
2024/03/21 05:30:09;;;;;;;10.27;4.53;;;16.20;60.50;;;;;;6284728;28;20129;-76
2024/03/21 05:33:10;;;;;;;11.30;4.65;;;16.10;60.60;;;;;;6281718;28;20020;-77
2024/03/21 05:36:12;;;;;;;7.38;4.10;;;16.10;60.70;;;;;;6284033;28;20032;-76
2024/03/21 05:39:14;;;;;;;13.38;4.40;;;16.20;60.90;;;;;;6282105;28;20393;-77
2024/03/21 05:42:16;;;;;;;9.38;5.05;;;16.10;60.90;;;;;;6266133;28;20043;-77
2024/03/21 05:45:18;;;;;;;9.80;3.78;;;16.20;61.00;;;;;;6284340;28;20131;-76
2024/03/21 05:48:19;;;;;;;9.30;4.38;;;16.10;61.00;;;;;;6277856;28;20048;-77
2024/03/21 05:51:20;;;;;;;10.68;4.78;;;16.20;61.20;;;;;;6282327;28;20016;-77
2024/03/21 05:54:21;;;;;;;10.95;3.55;;;16.30;61.40;;;;;;6282511;28;20048;-76
2024/03/21 05:57:25;;;;;;;9.13;3.80;;;16.10;61.20;;;;;;6265388;28;20048;-77
2024/03/21 06:00:26;;;;;;;8.20;3.65;;;16.00;61.20;;;;;;6265092;28;20033;-77
2024/03/21 06:03:27;;;;;;;9.30;3.83;;;16.00;61.30;;;;;;6264685;28;20827;-77
2024/03/21 06:06:28;;;;;;;10.88;3.70;;;15.90;61.30;;;;;;6283040;28;20115;-77
2024/03/21 06:09:31;;;;;;;6.13;3.55;;;15.90;61.40;;;;;;6255974;28;20064;-77
2024/03/21 06:12:32;;;;;;;10.82;4.32;;;15.80;61.40;;;;;;6268786;28;20457;-76
2024/03/21 06:15:34;;;;;;;9.10;4.78;;;15.80;61.40;;;;;;6281763;28;20089;-76
2024/03/21 06:18:37;;;;;;;11.90;4.00;;;15.80;61.50;;;;;;6281427;28;20348;-76
2024/03/21 06:21:37;;;;;;;9.07;4.85;;;15.80;61.60;;;;;;6281919;28;20021;-76
2024/03/21 06:24:40;;;;;;;7.03;3.58;;;15.80;61.60;;;;;;6282918;28;20409;-76
2024/03/21 06:27:41;;;;;;;7.50;4.22;;;15.80;61.60;;;;;;6283736;28;20123;-77
2024/03/21 06:30:44;;;;;;;7.03;4.05;;;15.80;61.60;;;;;;6281830;28;20027;-76
2024/03/21 06:33:47;;;;;;;7.82;3.70;;;15.80;61.50;;;;;;6271021;28;20032;-77
2024/03/21 06:36:49;;;;;;;15.40;4.45;;;15.90;61.40;;;;;;6261953;28;20021;-77
2024/03/21 06:39:49;;;;;;;9.32;4.55;;;15.90;61.40;;;;;;6280644;28;20107;-76
2024/03/21 06:42:51;;;;;;;18.15;4.38;;;15.90;61.20;;;;;;6281406;28;20803;-76
2024/03/21 06:45:57;;;;;;;14.23;5.25;;;16.00;61.10;;;;;;6265066;28;20032;-78
2024/03/21 06:48:58;;;;;;;12.98;4.55;;;16.10;61.00;;;;;;6264970;28;20185;-76
2024/03/21 06:51:59;;;;;;;7.53;4.15;;;16.10;60.90;;;;;;6281380;28;20028;-76
2024/03/21 06:55:01;;;;;;;10.02;3.78;;;16.10;60.70;;;;;;6264629;28;20016;-76
2024/03/21 06:58:03;;;;;;;10.63;4.10;;;16.20;60.60;;;;;;6280611;28;20119;-77
2024/03/21 07:01:05;;;;;;;9.48;4.20;;;16.20;60.50;;;;;;6282810;28;20017;-76
2024/03/21 07:04:08;;;;;;;11.77;4.95;;;16.30;60.40;;;;;;6263150;28;20048;-76
2024/03/21 07:07:38;;;;;;;9.75;4.97;;;16.30;60.20;;;;;;6263861;28;20035;-76
2024/03/21 07:10:39;;;;;;;9.70;4.35;;;16.40;60.20;;;;;;6264564;28;20124;-77
2024/03/21 07:13:40;;;;;;;10.27;4.50;;;16.50;60.10;;;;;;6270324;28;20369;-76
2024/03/21 07:16:41;;;;;;;10.88;5.28;;;16.60;60.00;;;;;;6280731;28;20108;-75
2024/03/21 07:19:44;;;;;;;16.08;5.30;;;16.80;59.90;;;;;;6264083;28;20437;-76
2024/03/21 07:22:46;;;;;;;9.90;5.25;;;16.70;59.60;;;;;;6281637;28;20116;-76
2024/03/21 07:25:47;;;;;;;13.45;4.10;;;16.70;59.50;;;;;;6263119;28;20033;-76
2024/03/21 07:28:48;;;;;;;11.15;5.82;;;16.70;59.40;;;;;;6279857;28;20193;-77
2024/03/21 07:31:49;;;;;;;14.25;5.53;;;16.80;59.40;;;;;;6263042;28;20111;-76
2024/03/21 07:34:50;;;;;;;10.80;5.40;;;16.80;59.30;;;;;;6261688;28;20017;-76
2024/03/21 07:37:52;;;;;;;14.88;4.63;;;16.90;59.30;;;;;;6275716;28;20016;-77
2024/03/21 07:40:59;;;;;;;11.18;5.45;;;16.90;59.30;;;;;;6279550;28;20028;-77
2024/03/21 07:44:02;;;;;;;13.98;5.43;;;17.00;59.20;;;;;;6280231;28;20059;-76
2024/03/21 07:47:03;;;;;;;11.30;4.72;;;17.00;59.20;;;;;;6255077;28;20077;-77
2024/03/21 07:50:04;;;;;;;11.52;4.65;;;17.10;59.20;;;;;;6274094;28;20035;-77
2024/03/21 07:53:06;;;;;;;15.25;5.63;;;17.10;59.10;;;;;;6228325;28;20028;-76
2024/03/21 07:56:07;;;;;;;12.73;4.97;;;17.10;59.10;;;;;;6281754;28;20056;-77
2024/03/21 07:59:08;;;;;;;8.25;4.93;;;17.20;59.20;;;;;;6282348;28;20029;-77
2024/03/21 08:02:09;;;;;;;9.38;5.35;;;17.30;59.10;;;;;;6277351;28;20049;-76
2024/03/21 08:05:09;;;;;;;19.48;5.25;;;17.40;58.90;;;;;;6279214;28;20097;-76
2024/03/21 08:08:10;;;;;;;14.23;5.43;;;17.50;58.80;;;;;;6279461;28;20498;-76
2024/03/21 08:11:13;;;;;;;14.48;5.55;;;17.60;58.60;;;;;;6283845;28;20499;-76
2024/03/21 08:14:14;;;;;;;16.67;6.35;;;17.70;58.40;;;;;;6268023;28;20571;-75
2024/03/21 08:17:16;;;;;;;15.25;5.95;;;17.70;58.20;;;;;;6267871;28;20158;-75
2024/03/21 08:20:17;;;;;;;15.80;6.80;;;17.80;58.20;;;;;;6284207;28;20024;-77
2024/03/21 08:23:19;;;;;;;12.55;6.22;;;18.00;58.10;;;;;;6266632;28;20086;-75
2024/03/21 08:26:19;;;;;;;14.90;6.75;;;18.10;58.00;;;;;;6249997;28;20055;-77
2024/03/21 08:29:22;;;;;;;19.27;7.78;;;18.30;57.70;;;;;;6283750;28;20080;-76
2024/03/21 08:32:23;;;;;;;17.38;7.07;;;18.40;57.50;;;;;;6272611;28;20190;-76
2024/03/21 08:35:24;;;;;;;14.77;7.43;;;18.60;57.20;;;;;;6266865;28;20112;-77
2024/03/21 08:38:24;;;;;;;18.33;8.32;;;18.70;56.80;;;;;;6267406;28;20025;-77
2024/03/21 08:41:26;;;;;;;23.35;9.68;;;18.80;56.30;;;;;;6267493;28;20032;-77
2024/03/21 08:44:27;;;;;;;16.63;7.65;;;18.90;56.10;;;;;;6267561;28;20270;-77
2024/03/21 08:47:29;;;;;;;17.38;8.32;;;19.00;55.90;;;;;;6283850;28;20036;-77
2024/03/21 08:50:32;;;;;;;17.17;8.55;;;19.00;55.90;;;;;;6284013;28;20029;-76
2024/03/21 08:53:37;;;;;;;19.73;8.15;;;19.20;55.80;;;;;;6281715;28;20531;-77
2024/03/21 08:56:39;;;;;;;22.60;9.45;;;19.40;55.40;;;;;;6284516;28;20112;-78
2024/03/21 08:59:40;;;;;;;15.63;8.57;;;19.50;55.10;;;;;;6267055;28;20021;-76
2024/03/21 09:02:42;;;;;;;15.10;6.40;;;19.60;54.90;;;;;;6283425;28;20040;-75
2024/03/21 09:05:42;;;;;;;16.90;7.45;;;19.70;54.40;;;;;;6282830;28;20028;-75
2024/03/21 09:08:44;;;;;;;12.35;6.45;;;19.90;53.80;;;;;;6283343;28;20091;-76
2024/03/21 09:16:09;;;;;;;14.18;5.75;;;20.40;53.30;;;;;;6284442;28;20532;-77
2024/03/21 09:19:10;;;;;;;15.90;6.13;;;20.70;52.50;;;;;;6282682;28;20532;-77
2024/03/21 09:22:11;;;;;;;14.05;6.05;;;20.90;52.20;;;;;;6266132;28;20090;-77
2024/03/21 09:25:13;;;;;;;8.73;5.47;;;21.10;51.90;;;;;;6283007;28;20037;-77
2024/03/21 09:28:15;;;;;;;12.55;5.43;;;21.20;51.60;;;;;;6284284;28;20421;-78
2024/03/21 09:31:16;;;;;;;10.27;5.40;;;21.40;51.30;;;;;;6276403;28;20487;-78
2024/03/21 09:38:40;;;;;;;12.00;5.13;;;21.50;50.40;;;;;;6263772;28;20076;-77
2024/03/21 09:41:41;;;;;;;10.75;5.03;;;21.60;50.20;;;;;;6278677;28;20200;-76
2024/03/21 09:44:48;;;;;;;10.85;4.82;;;21.70;49.70;;;;;;6264742;28;20107;-77
2024/03/21 09:47:52;;;;;;;11.63;4.33;;;21.80;49.30;;;;;;6282622;28;20089;-78
2024/03/21 09:50:53;;;;;;;10.00;4.28;;;21.90;49.00;;;;;;6261287;28;20020;-76
2024/03/21 09:53:54;;;;;;;9.68;4.55;;;22.00;48.80;;;;;;6281148;28;20087;-77
2024/03/21 09:56:55;;;;;;;8.00;4.50;;;22.00;48.70;;;;;;6265663;28;20032;-76
2024/03/21 09:59:59;;;;;;;10.38;3.92;;;21.90;48.70;;;;;;6281470;28;20055;-76
2024/03/21 10:03:00;;;;;;;7.60;3.97;;;21.90;48.60;;;;;;6265502;28;20020;-77
2024/03/21 10:06:04;;;;;;;17.20;5.75;;;21.90;48.40;;;;;;6280807;28;20008;-77
2024/03/21 10:09:05;;;;;;;7.28;4.47;;;21.80;48.20;;;;;;6277581;28;20039;-77
2024/03/21 10:12:07;;;;;;;14.85;4.63;;;21.80;48.30;;;;;;6264647;28;20021;-77
2024/03/21 10:15:12;;;;;;;10.05;4.57;;;21.80;48.40;;;;;;6280717;28;20036;-77
2024/03/21 10:18:14;;;;;;;7.47;4.03;;;21.80;48.60;;;;;;6269038;28;20493;-76
2024/03/21 10:21:16;;;;;;;9.95;4.20;;;21.90;48.50;;;;;;6271402;28;20027;-78
2024/03/21 10:24:18;;;;;;;8.50;4.18;;;21.90;48.00;;;;;;6265925;28;20028;-77
2024/03/21 10:27:19;;;;;;;10.32;3.38;;;22.00;48.00;;;;;;6284371;28;20036;-76
2024/03/21 10:30:23;;;;;;;6.53;3.17;;;22.00;47.70;;;;;;6282031;28;20028;-79
2024/03/21 10:33:26;;;;;;;10.82;4.15;;;22.10;47.60;;;;;;6265658;28;20141;-78
2024/03/21 10:36:27;;;;;;;4.47;3.15;;;22.10;47.20;;;;;;6283203;28;20032;-78
2024/03/21 10:39:28;;;;;;;7.13;2.78;;;22.10;47.00;;;;;;6264904;28;20028;-76
2024/03/21 10:42:38;;;;;;;10.13;3.95;;;22.20;46.90;;;;;;6265925;28;20139;-76
2024/03/21 10:45:42;;;;;;;11.27;3.20;;;22.40;46.20;;;;;;6265463;28;20185;-76
2024/03/21 10:53:22;;;;;;;5.03;2.70;;;23.00;45.40;;;;;;6272092;28;20029;-78
2024/03/21 10:56:25;;;;;;;6.22;2.70;;;23.40;44.60;;;;;;6281165;28;20143;-77
2024/03/21 10:59:27;;;;;;;8.40;2.90;;;23.80;43.80;;;;;;6281648;28;20020;-76
2024/03/21 11:02:30;;;;;;;6.50;2.83;;;24.00;43.00;;;;;;6281133;28;20198;-78
2024/03/21 11:05:36;;;;;;;6.68;3.15;;;24.30;42.70;;;;;;6262702;28;20465;-77
2024/03/21 11:13:00;;;;;;;4.53;2.63;;;24.70;41.80;;;;;;6285800;28;20485;-76
2024/03/21 11:16:02;;;;;;;4.60;2.35;;;24.90;41.10;;;;;;6263545;28;20454;-79
2024/03/21 11:19:05;;;;;;;4.53;2.45;;;25.20;40.60;;;;;;6281356;28;20032;-79
2024/03/21 11:22:12;;;;;;;10.27;2.50;;;25.20;40.00;;;;;;6280482;28;20353;-77
2024/03/21 11:25:14;;;;;;;4.28;2.50;;;25.40;40.00;;;;;;6280526;28;20035;-78
2024/03/21 11:28:15;;;;;;;3.08;2.15;;;25.60;39.90;;;;;;6263740;28;20080;-78
2024/03/21 11:31:28;;;;;;;7.53;2.80;;;25.90;39.60;;;;;;6264634;28;20025;-78
2024/03/21 11:34:29;;;;;;;4.63;2.45;;;26.30;38.70;;;;;;6264217;28;20115;-78
2024/03/21 11:37:31;;;;;;;10.07;2.33;;;26.60;38.20;;;;;;6281254;28;20054;-75
2024/03/21 11:40:34;;;;;;;6.15;2.25;;;26.80;37.40;;;;;;6280246;28;20103;-76
2024/03/21 11:43:38;;;;;;;5.00;2.33;;;27.10;36.90;;;;;;6270176;28;20116;-77
2024/03/21 11:46:40;;;;;;;6.28;3.13;;;27.50;36.50;;;;;;6283109;28;20077;-77
2024/03/21 11:49:52;;;;;;;6.88;2.40;;;27.90;35.50;;;;;;6285332;28;20578;-77
2024/03/21 11:52:53;;;;;;;4.93;2.28;;;28.20;34.90;;;;;;6269492;28;20028;-77
2024/03/21 11:55:54;;;;;;;5.45;2.78;;;28.70;34.00;;;;;;6285304;28;20039;-77
2024/03/21 11:58:55;;;;;;;3.65;2.13;;;29.00;33.60;;;;;;6285689;28;20048;-77
2024/03/21 12:02:17;;;;;;;5.90;2.45;;;29.40;33.20;;;;;;6286062;28;20024;-77
2024/03/21 12:05:19;;;;;;;6.60;2.53;;;29.80;32.50;;;;;;6287430;28;20465;-78
2024/03/21 12:08:20;;;;;;;5.28;2.53;;;30.20;31.80;;;;;;6268538;28;20023;-77
2024/03/21 12:11:21;;;;;;;9.65;2.42;;;30.50;31.00;;;;;;6286586;28;20048;-78
2024/03/21 12:14:22;;;;;;;4.68;2.05;;;30.80;30.50;;;;;;6267393;28;20048;-78
2024/03/21 12:17:23;;;;;;;6.80;1.83;;;31.20;30.00;;;;;;6284280;28;20071;-77
2024/03/21 12:20:24;;;;;;;4.32;1.90;;;31.70;29.10;;;;;;6268349;28;20029;-76
2024/03/21 12:23:25;;;;;;;8.93;1.80;;;32.10;28.70;;;;;;6268872;28;20063;-77
2024/03/21 12:27:03;;;;;;;2.95;1.30;;;32.50;28.20;;;;;;6268617;28;20044;-77
2024/03/21 12:30:06;;;;;;;5.43;1.48;;;33.10;27.50;;;;;;6258850;28;20517;-77
2024/03/21 12:33:11;;;;;;;3.45;1.60;;;33.40;26.60;;;;;;6277459;28;20036;-77
2024/03/21 12:36:12;;;;;;;3.20;1.63;;;33.70;26.40;;;;;;6267817;28;20024;-77
2024/03/21 12:39:15;;;;;;;3.88;1.50;;;34.10;26.10;;;;;;6281145;28;20024;-78
2024/03/21 12:42:17;;;;;;;1.92;1.23;;;34.50;25.60;;;;;;6284140;28;20100;-78
2024/03/21 12:45:18;;;;;;;5.22;1.75;;;34.70;25.10;;;;;;6267093;28;20020;-77
2024/03/21 12:48:19;;;;;;;5.38;1.40;;;34.90;25.00;;;;;;6266992;28;20515;-77
2024/03/21 12:51:20;;;;;;;2.38;1.67;;;34.90;24.40;;;;;;6266181;28;20151;-76
2024/03/21 12:54:21;;;;;;;6.05;1.80;;;34.70;24.30;;;;;;6283137;28;20820;-77
2024/03/21 12:57:22;;;;;;;3.65;1.80;;;34.60;24.40;;;;;;6280198;28;20119;-76
2024/03/21 13:00:23;;;;;;;1.90;1.55;;;34.70;24.30;;;;;;6250870;28;20341;-76
2024/03/21 13:03:24;;;;;;;2.22;1.58;;;34.80;24.30;;;;;;6266688;28;20387;-77
2024/03/21 13:06:25;;;;;;;3.33;1.45;;;34.80;24.10;;;;;;6266066;28;20515;-78
2024/03/21 13:09:26;;;;;;;5.88;1.50;;;34.00;24.60;;;;;;6282429;28;20025;-77
2024/03/21 13:12:27;;;;;;;1.90;1.67;;;33.20;25.30;;;;;;6249037;28;20372;-77
2024/03/21 13:15:28;;;;;;;4.15;1.73;;;33.00;25.80;;;;;;6283888;28;20170;-77
2024/03/21 13:18:30;;;;;;;5.20;1.75;;;33.30;25.70;;;;;;6265676;28;20075;-77
2024/03/21 13:21:32;;;;;;;2.38;1.60;;;33.70;25.40;;;;;;6265730;28;20024;-77
2024/03/21 13:24:33;;;;;;;10.48;1.75;;;33.70;25.20;;;;;;6266000;28;20048;-77
2024/03/21 13:27:34;;;;;;;5.28;1.90;;;33.70;25.20;;;;;;6282007;28;20036;-77
2024/03/21 13:30:35;;;;;;;5.80;1.77;;;33.70;25.30;;;;;;6283247;28;20032;-76
2024/03/21 13:33:36;;;;;;;2.35;1.48;;;33.90;25.30;;;;;;6283766;28;20120;-76
2024/03/21 13:36:37;;;;;;;4.15;1.58;;;34.20;24.90;;;;;;6282293;28;20029;-76
2024/03/21 13:39:39;;;;;;;3.90;1.48;;;34.00;24.80;;;;;;6277576;28;20047;-78
2024/03/21 13:42:40;;;;;;;10.00;1.60;;;33.40;25.40;;;;;;6266226;28;20511;-77
2024/03/21 13:45:51;;;;;;;4.82;1.50;;;32.70;26.00;;;;;;6265167;28;20123;-77
2024/03/21 13:48:55;;;;;;;5.22;1.63;;;31.90;26.70;;;;;;6283035;28;20020;-77
2024/03/21 13:51:56;;;;;;;6.63;2.00;;;31.20;27.40;;;;;;6282400;28;20361;-76
2024/03/21 13:55:01;;;;;;;2.58;1.50;;;30.50;28.00;;;;;;6282477;28;20044;-77
2024/03/21 13:58:02;;;;;;;3.47;2.20;;;30.00;28.50;;;;;;6282147;28;20012;-77
2024/03/21 14:01:04;;;;;;;3.65;1.60;;;29.50;28.80;;;;;;6273932;28;20460;-77
2024/03/21 14:04:09;;;;;;;4.60;1.50;;;29.10;29.10;;;;;;6272959;28;20466;-76
2024/03/21 14:07:10;;;;;;;1.90;1.30;;;28.90;29.60;;;;;;6279164;28;20083;-75
2024/03/21 14:10:12;;;;;;;9.90;1.77;;;28.70;29.90;;;;;;6261007;28;20029;-77
2024/03/21 14:13:14;;;;;;;2.78;1.63;;;28.60;30.00;;;;;;6280640;28;20088;-77
2024/03/21 14:16:16;;;;;;;3.90;1.65;;;28.60;30.20;;;;;;6264357;28;20141;-76
2024/03/21 14:19:21;;;;;;;5.63;1.73;;;28.50;30.40;;;;;;6281110;28;20021;-78
2024/03/21 14:22:39;;;;;;;8.73;1.80;;;28.20;31.20;;;;;;6284331;28;20108;-78
2024/03/21 14:25:40;;;;;;;5.77;1.90;;;28.10;30.90;;;;;;6265245;28;20037;-79
2024/03/21 14:28:41;;;;;;;4.75;1.50;;;28.00;31.10;;;;;;6254627;28;20267;-77
2024/03/21 14:31:45;;;;;;;3.38;2.03;;;27.90;31.20;;;;;;6282714;28;20353;-77
2024/03/21 14:34:50;;;;;;;6.15;1.77;;;27.90;31.20;;;;;;6263747;28;20098;-76
2024/03/21 14:37:52;;;;;;;7.30;1.85;;;27.90;31.10;;;;;;6266062;28;20019;-76
2024/03/21 14:40:53;;;;;;;2.58;1.40;;;27.90;30.90;;;;;;6280201;28;20040;-76
2024/03/21 14:43:54;;;;;;;4.63;2.17;;;28.00;31.50;;;;;;6281519;28;20017;-77
2024/03/21 14:46:55;;;;;;;3.72;1.75;;;27.90;31.20;;;;;;6279435;28;20025;-77
2024/03/21 14:49:57;;;;;;;4.65;1.60;;;27.80;31.30;;;;;;6246162;28;20091;-77
2024/03/21 14:52:58;;;;;;;5.10;2.20;;;27.70;31.60;;;;;;6279268;28;20077;-77
2024/03/21 14:55:59;;;;;;;3.60;1.73;;;27.60;31.80;;;;;;6276068;28;20387;-76
2024/03/21 14:59:01;;;;;;;5.20;1.50;;;27.50;31.90;;;;;;6273587;28;20025;-76
2024/03/21 15:02:13;;;;;;;6.93;1.95;;;27.40;32.00;;;;;;6281135;28;20017;-77
2024/03/21 15:05:14;;;;;;;3.97;1.80;;;27.30;32.40;;;;;;6274392;28;20031;-75
2024/03/21 15:08:15;;;;;;;4.90;1.77;;;27.30;32.70;;;;;;6263020;28;20032;-77
2024/03/21 15:11:17;;;;;;;11.73;1.95;;;27.20;32.90;;;;;;6280406;28;20033;-76
2024/03/21 15:14:18;;;;;;;2.95;1.75;;;27.20;32.90;;;;;;6247098;28;20497;-75
2024/03/21 15:17:19;;;;;;;5.35;1.67;;;27.10;33.00;;;;;;6263849;28;20028;-76
2024/03/21 15:20:20;;;;;;;5.18;2.78;;;27.20;32.80;;;;;;6279492;28;20120;-75
2024/03/21 15:23:21;;;;;;;4.72;1.63;;;27.20;32.30;;;;;;6280749;28;20429;-76
2024/03/21 15:26:21;;;;;;;3.60;2.22;;;27.20;32.40;;;;;;6282359;28;20096;-76
2024/03/21 15:29:22;;;;;;;2.75;1.48;;;27.30;32.60;;;;;;6279891;28;20123;-76
2024/03/21 15:32:23;;;;;;;5.38;1.80;;;27.40;32.80;;;;;;6254190;28;20025;-77
2024/03/21 15:35:24;;;;;;;2.00;1.40;;;27.30;32.80;;;;;;6280887;28;20063;-77
2024/03/21 15:38:27;;;;;;;5.50;1.50;;;27.30;33.00;;;;;;6279685;28;20048;-76
2024/03/21 15:41:28;;;;;;;3.75;1.77;;;27.20;33.10;;;;;;6263841;28;20090;-76
2024/03/21 15:44:29;;;;;;;6.13;1.70;;;27.20;33.10;;;;;;6263105;28;20174;-78
2024/03/21 15:47:31;;;;;;;3.08;1.60;;;27.10;33.10;;;;;;6279619;28;20029;-77
2024/03/21 15:50:32;;;;;;;4.95;1.90;;;27.00;33.20;;;;;;6262383;28;20095;-77
2024/03/21 15:53:34;;;;;;;2.83;1.38;;;26.90;33.30;;;;;;6263123;28;20114;-77
2024/03/21 15:56:36;;;;;;;4.13;1.63;;;26.90;33.40;;;;;;6279807;28;20036;-76
2024/03/21 15:59:39;;;;;;;4.63;1.75;;;26.90;33.50;;;;;;6279272;28;20044;-76
2024/03/21 16:02:40;;;;;;;2.83;1.48;;;26.80;33.60;;;;;;6280957;28;20048;-75
2024/03/21 16:05:41;;;;;;;4.30;1.60;;;26.80;33.60;;;;;;6279488;28;20117;-77
2024/03/21 16:08:43;;;;;;;4.30;1.75;;;26.90;33.60;;;;;;6262354;28;20610;-77